Time;durP1;ratioP1;P1;durP2;ratioP2;P2;SDS_P1;SDS_P2;PMS_P1;PMS_P2;Temp;Humidity;BMP_temperature;BMP_pressure;BME280_temperature;BME280_humidity;BME280_pressure;Samples;Min_cycle;Max_cycle;Signal;HPM_P1;HPM_P2
2022/06/21 00:00:59;;;;;;;5.90;2.40;;;;;;;20.28;53.51;98920.03;1669080;85;21093;-70
2022/06/21 00:03:28;;;;;;;3.05;2.70;;;;;;;20.25;53.43;98917.66;1652095;86;21068;-71
2022/06/21 00:05:54;;;;;;;5.28;3.25;;;;;;;20.22;53.84;98912.63;1680901;85;21208;-71
2022/06/21 00:08:30;;;;;;;4.30;2.85;;;;;;;20.20;53.65;98905.71;1661833;85;21061;-70
2022/06/21 00:10:58;;;;;;;3.00;2.70;;;;;;;20.19;53.76;98908.89;1680928;85;21038;-71
2022/06/21 00:13:29;;;;;;;4.10;2.80;;;;;;;20.16;54.21;98910.53;1671680;85;21120;-70
2022/06/21 00:16:00;;;;;;;4.95;2.87;;;;;;;20.14;54.46;98907.66;1681113;85;21119;-71
2022/06/21 00:18:28;;;;;;;4.42;2.90;;;;;;;20.10;54.20;98910.61;1672006;85;21108;-71
2022/06/21 00:20:54;;;;;;;4.95;2.67;;;;;;;20.07;54.07;98908.74;1680946;85;21026;-71
2022/06/21 00:23:25;;;;;;;4.17;2.98;;;;;;;20.04;54.00;98903.70;1671797;85;21096;-70
2022/06/21 00:25:54;;;;;;;4.05;2.95;;;;;;;20.02;54.23;98903.00;1681076;85;21603;-69
2022/06/21 00:28:22;;;;;;;4.12;2.58;;;;;;;19.98;54.19;98898.94;1671705;85;21077;-69
2022/06/21 00:30:52;;;;;;;4.00;2.77;;;;;;;19.96;54.12;98898.23;1680822;85;21104;-70
2022/06/21 00:33:24;;;;;;;8.35;3.05;;;;;;;19.92;54.43;98897.67;1671491;85;21088;-70
2022/06/21 00:35:55;;;;;;;5.22;3.22;;;;;;;19.90;54.33;98890.33;1681022;85;21076;-68
2022/06/21 00:38:35;;;;;;;3.93;3.00;;;;;;;19.90;54.17;98893.00;1671681;85;21057;-69
2022/06/21 00:41:07;;;;;;;4.03;3.25;;;;;;;19.89;53.62;98890.80;1680724;85;21084;-70
2022/06/21 00:43:39;;;;;;;5.47;3.27;;;;;;;19.91;54.23;98882.64;1671562;85;21140;-70
2022/06/21 00:46:31;;;;;;;6.62;2.70;;;;;;;19.93;53.79;98887.35;1702642;83;21041;-70
2022/06/21 00:48:59;;;;;;;4.08;2.80;;;;;;;19.95;53.95;98882.70;1709424;83;21052;-70
2022/06/21 00:51:37;;;;;;;6.28;2.90;;;;;;;19.94;53.05;98878.83;1709377;83;21097;-69
2022/06/21 00:54:34;;;;;;;5.10;2.70;;;;;;;19.94;53.09;98876.16;1709489;83;21034;-69
2022/06/21 00:57:05;;;;;;;3.42;2.80;;;;;;;19.97;52.52;98878.53;1715959;83;21259;-69
2022/06/21 00:59:33;;;;;;;3.83;2.90;;;;;;;20.01;52.57;98882.59;1719503;83;21080;-70
2022/06/21 01:02:21;;;;;;;4.42;2.80;;;;;;;20.01;52.59;98873.24;1719684;83;21521;-69
2022/06/21 01:04:54;;;;;;;6.17;3.52;;;;;;;20.00;52.66;98866.23;1719957;83;21107;-69
2022/06/21 01:07:22;;;;;;;11.57;4.53;;;;;;;20.00;52.15;98859.55;1719857;83;21100;-70
2022/06/21 01:10:03;;;;;;;9.45;5.10;;;;;;;19.99;52.05;98859.19;1720136;83;21876;-69
2022/06/21 01:12:49;;;;;;;10.03;4.53;;;;;;;19.96;52.11;98849.64;1719749;83;21061;-69
2022/06/21 01:15:21;;;;;;;7.22;2.98;;;;;;;20.01;51.73;98859.88;1719947;83;21061;-70
2022/06/21 01:17:52;;;;;;;5.12;3.25;;;;;;;20.01;51.61;98854.03;1719838;83;21060;-70
2022/06/21 01:20:23;;;;;;;7.72;4.08;;;;;;;19.99;52.04;98848.03;1720200;83;21045;-69
2022/06/21 01:23:33;;;;;;;6.37;3.40;;;;;;;19.97;51.97;98850.00;1720084;83;21270;-70
2022/06/21 01:26:39;;;;;;;4.33;3.30;;;;;;;19.94;51.97;98842.77;1719904;83;21643;-69
2022/06/21 01:29:09;;;;;;;9.00;3.65;;;;;;;19.96;51.82;98836.78;1719959;83;21095;-69
2022/06/21 01:31:37;;;;;;;7.95;3.25;;;;;;;19.92;51.59;98833.55;1720212;83;21182;-68
2022/06/21 01:34:20;;;;;;;5.53;3.08;;;;;;;19.88;51.38;98830.35;1720096;83;21138;-71
2022/06/21 01:36:50;;;;;;;5.03;3.27;;;;;;;19.87;51.11;98835.33;1720016;83;21537;-69
2022/06/21 01:39:44;;;;;;;6.40;3.43;;;;;;;19.87;51.84;98833.99;1720385;83;21048;-70
2022/06/21 01:42:18;;;;;;;7.78;4.28;;;;;;;19.86;51.85;98829.66;1719935;83;21076;-70
2022/06/21 01:44:50;;;;;;;6.85;3.45;;;;;;;19.86;51.91;98829.66;1720039;83;21048;-69
2022/06/21 01:47:22;;;;;;;5.08;3.00;;;;;;;19.86;52.13;98820.30;1719967;83;21564;-71
2022/06/21 01:49:59;;;;;;;8.85;3.20;;;;;;;19.87;51.36;98813.95;1691248;84;21257;-70
2022/06/21 01:52:31;;;;;;;3.95;2.72;;;;;;;19.88;51.47;98814.32;1690957;84;22091;-71
2022/06/21 01:55:09;;;;;;;4.58;2.67;;;;;;;19.90;50.29;98811.01;1691486;84;21100;-71
2022/06/21 01:57:36;;;;;;;3.98;2.72;;;;;;;19.95;49.96;98803.88;1675775;83;21105;-69
2022/06/21 02:00:08;;;;;;;6.25;2.92;;;;;;;20.03;49.57;98812.48;1734094;82;21537;-71
2022/06/21 02:02:42;;;;;;;4.62;2.80;;;;;;;20.10;49.99;98811.72;1734263;82;21756;-70
2022/06/21 02:05:20;;;;;;;2.65;2.33;;;;;;;20.15;49.79;98809.94;1733158;82;21524;-70
2022/06/21 02:10:59;;;;;;;5.50;2.35;;;;;;;20.25;49.22;98802.72;1814397;79;22487;-71
2022/06/21 02:13:44;;;;;;;5.53;2.52;;;;;;;20.23;49.23;98796.67;1787900;80;21053;-69
2022/06/21 02:16:18;;;;;;;5.67;2.67;;;;;;;20.23;48.95;98793.17;1787140;80;21257;-70
2022/06/21 02:18:54;;;;;;;4.53;2.50;;;;;;;20.24;49.22;98797.01;1787467;80;20981;-71
2022/06/21 02:21:26;;;;;;;3.33;2.27;;;;;;;20.27;49.47;98797.23;1732449;80;21549;-70
2022/06/21 02:23:57;;;;;;;4.03;2.35;;;;;;;20.29;49.48;98795.22;1787660;80;21072;-70
2022/06/21 02:26:25;;;;;;;;;;;;;;;20.30;48.97;98796.41;1790192;80;20962;-70
2022/06/21 02:28:54;;;;;;;6.37;2.60;;;;;;;20.30;49.12;98791.06;1787712;80;20510;-70
2022/06/21 02:31:21;;;;;;;4.25;2.35;;;;;;;20.27;49.05;98786.53;1787329;80;21032;-70
2022/06/21 02:33:48;;;;;;;5.78;2.58;;;;;;;20.28;48.83;98785.02;1756690;80;21049;-70
2022/06/21 02:36:19;;;;;;;7.55;2.50;;;;;;;20.29;49.06;98785.86;1787126;80;21064;-70
2022/06/21 02:38:50;;;;;;;10.63;3.27;;;;;;;20.30;49.20;98781.70;1787488;80;21041;-71
2022/06/21 02:41:34;;;;;;;3.70;2.58;;;;;;;20.32;49.14;98778.39;1787650;80;21389;-69
2022/06/21 02:44:30;;;;;;;7.03;2.67;;;;;;;20.33;49.10;98770.70;1787501;80;21037;-70
2022/06/21 02:47:05;;;;;;;4.85;2.98;;;;;;;20.37;49.42;98766.41;1756308;81;21052;-69
2022/06/21 02:49:38;;;;;;;5.45;2.50;;;;;;;20.40;49.78;98768.77;1756340;81;21052;-69
2022/06/21 02:52:22;;;;;;;7.10;3.02;;;;;;;20.40;49.17;98754.06;1756246;81;21545;-71
2022/06/21 02:55:27;;;;;;;4.92;2.17;;;;;;;20.47;48.50;98751.11;1756648;81;22237;-69
2022/06/21 02:58:05;;;;;;;6.53;2.50;;;;;;;20.52;48.64;98755.50;1756350;81;21068;-70
2022/06/21 03:00:33;;;;;;;4.90;2.95;;;;;;;20.57;48.97;98755.94;1756511;81;21092;-70
2022/06/21 03:03:00;;;;;;;6.00;2.90;;;;;;;20.60;49.33;98758.79;1756235;81;21112;-69
2022/06/21 03:05:27;;;;;;;4.15;2.40;;;;;;;20.64;49.66;98747.62;1756642;81;21712;-70
2022/06/21 03:07:59;;;;;;;5.22;2.47;;;;;;;20.65;49.69;98737.26;1756604;81;21152;-70
2022/06/21 03:10:37;;;;;;;3.47;2.58;;;;;;;20.68;49.61;98734.30;1734682;81;21513;-70
2022/06/21 03:13:12;;;;;;;5.12;2.40;;;;;;;20.74;49.56;98734.16;1723117;83;21045;-70
2022/06/21 03:15:41;;;;;;;8.05;2.75;;;;;;;20.77;49.04;98735.17;1723762;83;21109;-70
2022/06/21 03:18:16;;;;;;;6.45;2.87;;;;;;;20.81;49.26;98731.20;1723557;83;21048;-71
2022/06/21 03:20:42;;;;;;;6.28;2.47;;;;;;;20.89;48.99;98735.75;1723426;83;21181;-70
2022/06/21 03:23:11;;;;;;;4.85;2.80;;;;;;;20.92;48.60;98719.41;1722852;83;21057;-71
2022/06/21 03:25:46;;;;;;;4.47;3.00;;;;;;;20.99;49.04;98728.48;1723176;83;21564;-70
2022/06/21 03:28:39;;;;;;;4.83;3.00;;;;;;;21.06;48.23;98728.19;1722758;83;22098;-70
2022/06/21 03:31:17;;;;;;;5.97;2.65;;;;;;;21.16;48.34;98723.58;1722884;83;21014;-70
2022/06/21 03:33:49;;;;;;;4.42;2.50;;;;;;;21.29;48.42;98723.64;1722637;83;21209;-70
2022/06/21 03:36:23;;;;;;;2.92;2.47;;;;;;;21.40;48.25;98731.42;1722729;83;21103;-70
2022/06/21 03:38:55;;;;;;;6.50;3.20;;;;;;;21.44;48.40;98711.84;1722696;83;21121;-69
2022/06/21 03:44:19;;;;;;;5.72;2.90;;;;;;;21.68;47.38;98713.28;1723042;83;21549;-69
2022/06/21 03:47:23;;;;;;;7.62;2.80;;;;;;;21.76;47.17;98712.47;1723223;83;21259;-71
2022/06/21 03:50:04;;;;;;;6.50;2.65;;;;;;;21.90;47.33;98711.86;1722858;83;22304;-69
2022/06/21 03:52:46;;;;;;;5.08;3.02;;;;;;;22.06;46.98;98710.20;1723101;83;21073;-70
2022/06/21 03:55:35;;;;;;;5.97;3.00;;;;;;;22.20;47.22;98712.22;1722911;83;21529;-70
2022/06/21 03:58:16;;;;;;;3.58;2.52;;;;;;;22.36;46.47;98693.52;1723097;83;21562;-69
2022/06/21 04:01:15;;;;;;;7.58;2.65;;;;;;;22.52;45.91;98702.55;1723211;83;21098;-69
2022/06/21 04:04:06;;;;;;;6.67;2.90;;;;;;;22.69;45.47;98700.72;1723153;83;21057;-70
2022/06/21 04:06:38;;;;;;;6.33;2.83;;;;;;;22.78;44.98;98700.53;1723474;83;21056;-70
2022/06/21 04:09:18;;;;;;;10.32;2.85;;;;;;;22.89;44.72;98704.72;1723274;83;21478;-70
2022/06/21 04:12:06;;;;;;;3.72;2.70;;;;;;;23.04;44.81;98696.82;1722891;83;21013;-70
2022/06/21 04:14:41;;;;;;;3.12;2.50;;;;;;;23.19;44.53;98696.45;1723582;83;21131;-71
2022/06/21 04:17:38;;;;;;;6.70;3.02;;;;;;;23.40;43.56;98689.67;1722380;83;21042;-70
2022/06/21 04:20:18;;;;;;;5.97;2.83;;;;;;;23.53;43.74;98700.67;1723110;83;21065;-70
2022/06/21 04:23:07;;;;;;;9.33;3.33;;;;;;;23.76;43.26;98701.28;1695155;83;26578;-70
2022/06/21 04:25:51;;;;;;;5.33;2.62;;;;;;;23.93;43.00;98694.80;1723172;83;21120;-69
2022/06/21 04:28:26;;;;;;;3.70;2.30;;;;;;;24.10;42.89;98683.94;1722738;82;21123;-71
2022/06/21 04:31:12;;;;;;;3.20;2.20;;;;;;;24.22;41.98;98685.19;1723111;82;21967;-71
2022/06/21 04:33:50;;;;;;;7.03;2.77;;;;;;;24.33;42.11;98674.01;1723364;83;21025;-69
2022/06/21 04:36:49;;;;;;;5.83;2.65;;;;;;;24.47;41.84;98675.93;1722067;83;21049;-70
2022/06/21 04:39:35;;;;;;;9.35;2.83;;;;;;;24.64;41.53;98674.44;1722284;83;21194;-70
2022/06/21 04:42:07;;;;;;;6.08;2.37;;;;;;;24.78;41.29;98664.23;1713695;83;21045;-71
2022/06/21 04:44:41;;;;;;;5.37;2.60;;;;;;;24.98;40.42;98660.98;1727125;81;21584;-70
2022/06/21 04:47:28;;;;;;;7.97;2.50;;;;;;;25.18;40.43;98666.66;1753062;81;21093;-70
2022/06/21 04:50:05;;;;;;;6.33;2.77;;;;;;;25.42;40.02;98671.80;1752985;81;21045;-71
2022/06/21 04:52:42;;;;;;;4.95;2.30;;;;;;;25.70;39.67;98657.09;1752981;81;21104;-70
2022/06/21 04:55:16;;;;;;;7.05;2.60;;;;;;;25.95;38.74;98652.70;1752961;81;21142;-70
2022/06/21 04:57:43;;;;;;;5.30;2.60;;;;;;;26.19;38.98;98650.67;1752532;81;21098;-71
2022/06/21 05:00:17;;;;;;;6.35;2.70;;;;;;;26.49;38.12;98651.34;1753013;81;21041;-71
2022/06/21 05:02:55;;;;;;;8.85;2.40;;;;;;;26.82;37.62;98653.48;1752791;81;21053;-71
2022/06/21 05:05:26;;;;;;;4.97;2.42;;;;;;;27.07;36.73;98649.80;1753172;81;21097;-71
2022/06/21 05:08:00;;;;;;;4.92;2.47;;;;;;;27.26;36.17;98639.63;1752815;81;21089;-71
2022/06/21 05:10:34;;;;;;;11.28;2.80;;;;;;;27.30;36.61;98636.85;1764421;80;20994;-72
2022/06/21 05:13:06;;;;;;;5.42;2.50;;;;;;;27.42;36.67;98637.11;1781640;80;21034;-71
2022/06/21 05:15:37;;;;;;;4.42;2.27;;;;;;;27.54;36.43;98640.09;1781939;80;21120;-69
2022/06/21 05:18:14;;;;;;;5.73;2.80;;;;;;;27.68;36.35;98639.63;1781924;80;21053;-71
2022/06/21 05:20:51;;;;;;;6.47;2.92;;;;;;;27.72;36.04;98633.60;1782054;80;22410;-71
2022/06/21 05:23:18;;;;;;;7.05;2.60;;;;;;;27.92;35.63;98628.77;1780629;80;21037;-71
2022/06/21 05:25:45;;;;;;;6.90;2.40;;;;;;;28.03;35.25;98629.53;1782143;80;21018;-71
2022/06/21 05:28:37;;;;;;;5.92;2.33;;;;;;;28.10;35.22;98621.42;1781724;80;21053;-71
2022/06/21 05:31:19;;;;;;;7.08;2.60;;;;;;;28.12;35.20;98616.11;1782294;80;21553;-71
2022/06/21 05:34:01;;;;;;;8.48;3.25;;;;;;;28.14;35.09;98614.56;1781756;80;21860;-71
2022/06/21 05:36:40;;;;;;;5.60;2.67;;;;;;;28.18;35.32;98612.59;1782208;80;21693;-71
2022/06/21 05:39:20;;;;;;;6.30;2.47;;;;;;;28.45;34.90;98613.39;1781949;80;21128;-70
2022/06/21 05:41:44;;;;;;;6.08;2.62;;;;;;;28.87;34.24;98606.38;1781444;80;21092;-72
2022/06/21 05:44:15;;;;;;;12.20;2.75;;;;;;;29.12;34.13;98601.67;1781965;79;21018;-71
2022/06/21 05:46:49;;;;;;;5.87;2.58;;;;;;;29.27;33.96;98596.30;1751059;81;21116;-72
2022/06/21 05:49:26;;;;;;;5.37;3.12;;;;;;;29.58;33.12;98593.84;1750785;82;21048;-73
2022/06/21 05:51:53;;;;;;;7.12;2.90;;;;;;;29.93;32.27;98588.02;1751240;81;21058;-70
2022/06/21 05:54:23;;;;;;;9.05;2.77;;;;;;;29.85;32.36;98584.53;1751074;82;21506;-72
2022/06/21 05:56:50;;;;;;;12.65;2.80;;;;;;;29.71;33.03;98585.67;1751178;81;21084;-71
2022/06/21 05:59:19;;;;;;;6.17;2.70;;;;;;;29.71;32.60;98590.27;1750938;82;21135;-71
2022/06/21 06:01:56;;;;;;;10.28;2.67;;;;;;;29.79;32.46;98585.39;1750995;82;21065;-71
2022/06/21 06:04:38;;;;;;;5.42;2.65;;;;;;;29.78;32.38;98583.75;1750738;82;21061;-71
2022/06/21 06:07:05;;;;;;;6.65;2.85;;;;;;;29.65;32.97;98577.01;1750789;82;21178;-72
2022/06/21 06:09:43;;;;;;;19.70;3.45;;;;;;;29.58;33.23;98575.69;1750866;82;21151;-70
2022/06/21 06:12:25;;;;;;;7.40;2.92;;;;;;;29.90;32.84;98572.48;1728534;81;21077;-71
2022/06/21 06:15:16;;;;;;;8.00;2.60;;;;;;;29.98;32.38;98566.48;1756029;81;21104;-71
2022/06/21 06:18:00;;;;;;;11.57;3.00;;;;;;;29.97;32.80;98562.12;1756237;81;21021;-70
2022/06/21 06:20:58;;;;;;;8.65;3.72;;;;;;;29.92;32.96;98579.06;1750819;81;21784;-70
2022/06/21 06:23:42;;;;;;;6.40;2.72;;;;;;;30.14;32.94;98567.31;1756198;81;21056;-71
2022/06/21 06:26:16;;;;;;;5.83;2.87;;;;;;;30.58;32.29;98558.69;1755909;81;21132;-70
2022/06/21 06:29:01;;;;;;;6.62;2.80;;;;;;;30.95;31.83;98566.89;1755855;81;21104;-71
2022/06/21 06:31:51;;;;;;;5.05;2.45;;;;;;;31.30;30.92;98557.56;1755784;81;21107;-70
2022/06/21 06:34:23;;;;;;;10.20;2.57;;;;;;;31.58;30.84;98562.97;1756145;81;21866;-71
2022/06/21 06:36:54;;;;;;;6.33;2.60;;;;;;;31.81;30.67;98567.66;1755998;81;21550;-71
2022/06/21 06:39:24;;;;;;;;;;;;;;;31.98;30.17;98559.16;1758472;81;21137;-70
2022/06/21 06:42:12;;;;;;;6.87;2.70;;;;;;;32.20;30.22;98562.67;1755689;81;20150;-71
2022/06/21 06:44:43;;;;;;;10.13;3.00;;;;;;;32.45;29.73;98556.17;1761041;80;21018;-71
2022/06/21 06:47:15;;;;;;;;;;;;;;;32.75;29.31;98562.34;1789491;80;21092;-71
2022/06/21 06:49:55;;;;;;;10.30;2.98;;;;;;;32.94;29.34;98556.73;1787369;80;20467;-70
2022/06/21 06:52:42;;;;;;;5.78;2.60;;;;;;;33.18;29.43;98563.83;1786686;80;21126;-72
2022/06/21 06:55:44;;;;;;;8.03;3.12;;;;;;;33.37;28.78;98558.19;1786913;80;21010;-71
2022/06/21 06:58:38;;;;;;;7.42;2.90;;;;;;;33.49;28.93;98557.59;1787164;80;21501;-71
2022/06/21 07:01:13;;;;;;;10.53;3.15;;;;;;;33.57;28.71;98553.16;1787290;80;20986;-72
2022/06/21 07:03:47;;;;;;;11.00;2.72;;;;;;;33.72;28.77;98550.41;1787319;80;21025;-72
2022/06/21 07:06:39;;;;;;;14.05;3.20;;;;;;;33.86;28.60;98544.91;1787305;80;21621;-72
2022/06/21 07:09:19;;;;;;;13.85;3.47;;;;;;;34.13;28.13;98544.30;1786859;80;21569;-71
2022/06/21 07:12:07;;;;;;;8.17;2.90;;;;;;;34.21;28.50;98543.87;1782072;80;21105;-70
2022/06/21 07:14:34;;;;;;;11.60;3.15;;;;;;;33.93;28.42;98538.75;1744435;80;21264;-71
2022/06/21 07:17:11;;;;;;;10.20;3.27;;;;;;;33.33;29.40;98539.28;1751084;80;21258;-72
2022/06/21 07:19:38;;;;;;;6.25;3.20;;;;;;;33.11;29.57;98549.50;1778466;80;21089;-70
2022/06/21 07:22:20;;;;;;;7.42;3.50;;;;;;;33.06;29.83;98540.38;1779613;80;20998;-71
2022/06/21 07:25:15;;;;;;;9.28;3.25;;;;;;;33.05;29.59;98540.09;1779395;80;21026;-71
2022/06/21 07:27:45;;;;;;;6.78;3.50;;;;;;;33.12;30.16;98536.14;1779309;80;21037;-72
2022/06/21 07:30:13;;;;;;;12.05;3.12;;;;;;;33.42;30.74;98535.91;1779288;80;21077;-71
2022/06/21 07:32:49;;;;;;;10.45;2.92;;;;;;;33.70;30.49;98529.34;1779194;80;21119;-72
2022/06/21 07:35:35;;;;;;;6.72;3.00;;;;;;;34.01;29.63;98534.25;1779013;80;21049;-72
2022/06/21 07:38:16;;;;;;;6.83;3.02;;;;;;;34.39;28.80;98533.22;1779155;80;21093;-70
2022/06/21 07:40:56;;;;;;;10.10;3.20;;;;;;;34.64;28.54;98530.87;1779223;80;21170;-71
2022/06/21 07:43:38;;;;;;;;;;;;;;;34.58;28.84;98543.32;1776659;80;21037;-72
2022/06/21 07:46:07;;;;;;;6.22;3.20;;;;;;;34.47;28.92;98541.83;1779349;80;21757;-73
2022/06/21 07:48:48;;;;;;;6.92;3.17;;;;;;;34.33;29.54;98537.80;1779208;80;21507;-71
2022/06/21 07:51:30;;;;;;;6.55;3.10;;;;;;;34.23;29.77;98536.25;1779011;80;21017;-70
2022/06/21 07:54:17;;;;;;;6.35;3.35;;;;;;;34.13;30.08;98538.84;1778903;80;21100;-72
2022/06/21 07:56:49;;;;;;;5.72;3.12;;;;;;;33.96;30.56;98539.64;1773268;80;21040;-72
2022/06/21 07:59:21;;;;;;;8.55;3.37;;;;;;;33.87;30.78;98539.76;1779194;80;21109;-70
2022/06/21 08:08:27;;;;;;;8.55;3.37;;;;;;;34.13;30.87;98538.84;1779088;80;21018;-72
2022/06/21 08:10:57;;;;;;;;;;;;;;;34.69;29.92;98531.48;1780020;80;21629;-71
2022/06/21 08:13:25;;;;;;;8.00;3.12;;;;;;;35.18;29.26;98530.23;1772953;80;21195;-72
2022/06/21 08:16:12;;;;;;;7.67;3.37;;;;;;;35.44;28.79;98528.59;1772693;80;21641;-71
2022/06/21 08:18:45;;;;;;;6.33;3.35;;;;;;;35.50;28.47;98533.05;1767324;80;21529;-72
2022/06/21 08:21:16;;;;;;;11.97;3.20;;;;;;;35.62;28.62;98528.80;1773590;80;21029;-72
2022/06/21 08:24:01;;;;;;;8.50;3.25;;;;;;;35.65;28.71;98526.91;1773253;80;20995;-71
2022/06/21 08:26:40;;;;;;;11.63;4.20;;;;;;;35.47;29.15;98517.11;1764546;80;21159;-72
2022/06/21 08:29:30;;;;;;;12.45;3.92;;;;;;;35.58;29.09;98518.05;1773076;80;21038;-72
2022/06/21 08:32:03;;;;;;;15.60;4.28;;;;;;;35.70;29.10;98518.73;1772979;80;21097;-71
2022/06/21 08:34:46;;;;;;;9.45;4.00;;;;;;;35.82;29.19;98513.63;1773203;80;21010;-72
2022/06/21 08:37:24;;;;;;;5.53;3.20;;;;;;;35.96;28.62;98512.13;1773011;80;21080;-71
2022/06/21 08:40:19;;;;;;;9.53;3.90;;;;;;;36.21;28.29;98516.16;1769358;80;21210;-74
2022/06/21 08:43:34;;;;;;;10.45;3.98;;;;;;;36.22;28.26;98515.91;1773152;80;21029;-70
2022/06/21 08:46:22;;;;;;;7.22;3.55;;;;;;;36.25;28.37;98514.55;1694750;83;21068;-70
2022/06/21 08:49:03;;;;;;;5.62;3.58;;;;;;;36.21;28.00;98513.42;1797869;79;21081;-72
2022/06/21 08:52:08;;;;;;;9.40;3.95;;;;;;;36.29;28.18;98508.83;1792881;79;21049;-72
2022/06/21 08:54:47;;;;;;;9.35;4.40;;;;;;;36.59;28.28;98504.66;1803005;79;22109;-72
2022/06/21 08:57:44;;;;;;;7.87;4.12;;;;;;;36.96;27.81;98506.73;1803712;79;21073;-72
2022/06/21 09:00:25;;;;;;;7.00;3.80;;;;;;;37.15;27.29;98492.55;1730991;82;21090;-71
2022/06/21 09:03:09;;;;;;;8.10;3.77;;;;;;;36.75;27.78;98492.66;1803431;79;21453;-72
2022/06/21 09:05:50;;;;;;;8.10;4.00;;;;;;;36.54;27.72;98495.27;1803139;79;21062;-72
2022/06/21 09:08:30;;;;;;;11.60;4.37;;;;;;;36.73;28.01;98480.58;1802265;79;21042;-72
2022/06/21 09:11:19;;;;;;;15.88;4.35;;;;;;;36.87;27.87;98491.06;1803120;79;21081;-72
2022/06/21 09:14:09;;;;;;;15.63;3.60;;;;;;;37.22;27.00;98483.50;1801621;79;21562;-72
2022/06/21 09:17:00;;;;;;;14.25;4.28;;;;;;;37.49;26.48;98479.16;1802486;79;21046;-72
2022/06/21 09:19:50;;;;;;;13.93;4.78;;;;;;;37.34;26.74;98477.23;1802706;79;21542;-72
2022/06/21 09:22:50;;;;;;;9.40;4.33;;;;;;;37.37;26.97;98478.61;1803200;79;21734;-72
2022/06/21 09:25:31;;;;;;;8.68;4.17;;;;;;;37.45;27.04;98475.87;1744940;79;21129;-71
2022/06/21 09:28:18;;;;;;;10.18;4.50;;;;;;;37.35;26.98;98474.75;1802500;79;21541;-74
2022/06/21 09:31:06;;;;;;;8.75;4.00;;;;;;;37.41;26.89;98469.27;1705436;83;21094;-72
2022/06/21 09:34:03;;;;;;;11.90;4.35;;;;;;;37.48;26.24;98473.94;1720044;82;21042;-71
2022/06/21 09:36:50;;;;;;;13.20;5.28;;;;;;;37.14;27.45;98468.96;1751397;81;21154;-72
2022/06/21 09:39:52;;;;;;;13.10;4.90;;;;;;;36.77;27.58;98460.31;1731954;82;21023;-72
2022/06/21 09:42:29;;;;;;;8.45;4.50;;;;;;;36.49;28.02;98463.72;1802962;79;21093;-72
2022/06/21 09:45:27;;;;;;;9.55;4.45;;;;;;;36.16;28.57;98464.89;1793434;79;21547;-73
2022/06/21 09:48:13;;;;;;;12.40;5.30;;;;;;;35.70;29.07;98457.12;1768446;81;21098;-71
2022/06/21 09:50:57;;;;;;;11.38;4.65;;;;;;;35.09;30.05;98447.75;1768176;81;21293;-72
2022/06/21 09:54:06;;;;;;;8.53;4.47;;;;;;;34.81;30.59;98450.70;1768376;81;21047;-72
2022/06/21 09:56:53;;;;;;;11.20;4.30;;;;;;;34.78;30.52;98442.47;1768169;81;21063;-71
2022/06/21 09:59:49;;;;;;;12.85;4.62;;;;;;;34.76;30.37;98439.16;1676879;85;21097;-71
2022/06/21 10:02:30;;;;;;;13.35;4.28;;;;;;;34.64;30.95;98433.02;1768410;81;21060;-71
2022/06/21 10:05:18;;;;;;;14.28;4.50;;;;;;;34.32;31.54;98435.58;1768242;80;21932;-71
2022/06/21 10:08:15;;;;;;;8.33;3.75;;;;;;;34.00;31.95;98429.35;1768486;81;22194;-71
2022/06/21 10:11:26;;;;;;;10.08;4.40;;;;;;;33.72;32.02;98426.20;1768430;81;21036;-69
2022/06/21 10:14:17;;;;;;;11.45;4.10;;;;;;;33.57;32.94;98419.42;1768401;81;21012;-70
2022/06/21 10:17:01;;;;;;;8.28;4.10;;;;;;;33.26;33.31;98419.94;1768347;81;21040;-71
2022/06/21 10:19:36;;;;;;;9.70;3.83;;;;;;;33.04;32.99;98423.35;1767631;80;21704;-72
2022/06/21 10:22:27;;;;;;;11.83;3.98;;;;;;;33.01;33.21;98412.91;1748609;81;21043;-72
2022/06/21 10:25:21;;;;;;;12.33;3.40;;;;;;;33.20;33.31;98414.41;1768585;80;21564;-71
2022/06/21 10:28:12;;;;;;;10.72;3.42;;;;;;;33.64;32.80;98412.44;1768570;81;21040;-71
2022/06/21 10:30:57;;;;;;;18.10;3.90;;;;;;;33.94;32.31;98418.91;1768460;81;21659;-70
2022/06/21 10:33:38;;;;;;;13.70;3.52;;;;;;;33.58;32.70;98451.63;1768310;80;21280;-71
2022/06/21 10:36:29;;;;;;;14.68;3.27;;;;;;;32.83;34.54;98463.53;1768098;80;21070;-70
2022/06/21 10:39:27;;;;;;;13.90;3.30;;;;;;;31.95;35.49;98499.68;1767936;81;21055;-71
2022/06/21 10:45:20;;;;;;;12.80;4.30;;;;;;;29.63;41.69;98474.67;1775490;80;20983;-71
2022/06/21 10:48:27;;;;;;;13.90;4.47;;;;;;;28.43;47.74;98502.29;1794582;80;21291;-72
2022/06/21 10:51:32;;;;;;;13.03;4.47;;;;;;;27.45;53.16;98516.92;1794635;80;21003;-70
2022/06/21 10:54:29;;;;;;;16.30;4.72;;;;;;;26.63;60.21;98532.18;1794614;79;21069;-71
2022/06/21 10:57:09;;;;;;;11.85;4.67;;;;;;;25.90;64.61;98521.66;1794509;80;20991;-72
2022/06/21 11:02:54;;;;;;;11.75;5.33;;;;;;;25.00;67.08;98536.41;1779203;79;21709;-72
2022/06/21 11:05:53;;;;;;;13.25;5.72;;;;;;;24.58;69.11;98539.28;1743614;79;21179;-72
2022/06/21 11:08:46;;;;;;;12.70;5.83;;;;;;;24.15;71.57;98551.11;1794963;79;21065;-70
2022/06/21 11:11:40;;;;;;;10.93;5.97;;;;;;;23.81;73.12;98555.08;1794587;80;21004;-70
2022/06/21 11:14:43;;;;;;;14.25;6.08;;;;;;;23.58;75.32;98554.57;1704509;82;21023;-70
2022/06/21 11:17:18;;;;;;;17.25;7.08;;;;;;;23.41;79.62;98550.30;1723735;82;21151;-70
2022/06/21 11:19:59;;;;;;;17.27;6.42;;;;;;;23.20;82.87;98560.33;1721814;82;21102;-71
2022/06/21 11:22:43;;;;;;;11.63;7.15;;;;;;;23.06;83.19;98547.14;1724321;83;21030;-71
2022/06/21 11:25:33;;;;;;;13.45;7.22;;;;;;;23.03;82.47;98555.56;1723824;83;21034;-70
2022/06/21 11:28:20;;;;;;;18.00;7.62;;;;;;;22.93;85.13;98544.14;1794509;80;21578;-71
2022/06/21 11:31:05;;;;;;;15.35;8.33;;;;;;;22.71;88.81;98538.53;1780560;79;21057;-72
2022/06/21 11:34:09;;;;;;;15.08;9.28;;;;;;;22.66;90.06;98536.88;1794065;79;21035;-71
2022/06/21 11:36:53;;;;;;;15.65;10.18;;;;;;;22.67;92.70;98541.23;1795142;79;21031;-71
2022/06/21 11:39:42;;;;;;;12.45;8.80;;;;;;;22.62;92.08;98542.26;1794584;80;21074;-71
2022/06/21 11:42:20;;;;;;;15.40;9.55;;;;;;;22.57;90.37;98541.94;1794864;79;21097;-72
2022/06/21 11:45:45;;;;;;;11.70;8.93;;;;;;;22.61;89.62;98553.98;1721352;83;21328;-70
2022/06/21 11:48:36;;;;;;;13.72;8.60;;;;;;;22.72;89.37;98558.98;1778855;80;21059;-69
2022/06/21 11:51:23;;;;;;;14.53;8.90;;;;;;;22.85;86.22;98572.38;1778387;80;21106;-70
2022/06/21 11:54:10;;;;;;;17.17;8.50;;;;;;;22.94;87.29;98584.25;1778697;80;21063;-71
2022/06/21 11:57:08;;;;;;;13.93;9.68;;;;;;;22.98;86.79;98595.45;1778885;80;21536;-70
2022/06/21 12:00:05;;;;;;;18.25;9.40;;;;;;;22.99;86.94;98603.89;1778878;80;21070;-71
2022/06/21 12:02:40;;;;;;;16.95;8.43;;;;;;;22.98;85.72;98631.70;1778933;80;21055;-71
2022/06/21 12:05:40;;;;;;;12.40;8.68;;;;;;;22.92;86.03;98668.64;1778988;80;21129;-70
2022/06/21 12:08:39;;;;;;;9.40;4.53;;;;;;;22.81;88.85;98733.73;1779384;80;21015;-72
2022/06/21 12:11:16;;;;;;;11.63;4.28;;;;;;;22.38;82.58;98734.42;1778851;80;21295;-71
2022/06/21 12:14:09;;;;;;;14.13;5.00;;;;;;;21.86;82.00;98741.31;1785353;80;21102;-72
2022/06/21 12:16:53;;;;;;;6.22;3.45;;;;;;;21.50;84.42;98761.59;1786779;80;21156;-72
2022/06/21 12:19:23;;;;;;;14.98;3.80;;;;;;;21.12;86.27;98748.98;1787572;80;21518;-73
2022/06/21 12:22:00;;;;;;;;;;;;;;;20.73;90.89;98737.34;1790469;80;21066;-71
2022/06/21 12:24:27;;;;;;;9.28;2.50;;;;;;;20.41;93.00;98730.36;1787596;80;20172;-72
2022/06/21 12:26:57;;;;;;;6.00;2.12;;;;;;;20.10;96.45;98732.88;1787677;80;21146;-71
2022/06/21 12:29:24;;;;;;;7.10;2.30;;;;;;;19.72;99.55;98733.99;1787797;80;21110;-71
2022/06/21 12:31:54;;;;;;;9.05;2.25;;;;;;;19.32;100.00;98747.62;1786798;80;21066;-71
2022/06/21 12:34:46;;;;;;;3.58;1.65;;;;;;;19.06;100.00;98748.27;1788079;80;21176;-72
2022/06/21 12:37:26;;;;;;;8.28;2.00;;;;;;;18.78;100.00;98747.35;1787781;80;21104;-71
2022/06/21 12:40:24;;;;;;;2.85;1.72;;;;;;;18.48;100.00;98750.50;1786751;80;21104;-71
2022/06/21 12:43:23;;;;;;;2.08;1.37;;;;;;;18.23;100.00;98754.56;1787442;80;21589;-72
2022/06/21 12:46:09;;;;;;;5.30;1.60;;;;;;;17.94;100.00;98755.84;1767556;80;21069;-71
2022/06/21 12:49:03;;;;;;;2.87;1.80;;;;;;;17.71;100.00;98741.38;1729311;81;21560;-71
2022/06/21 12:51:38;;;;;;;4.20;1.65;;;;;;;17.57;100.00;98753.74;1756334;81;21048;-72
2022/06/21 12:54:25;;;;;;;3.52;1.50;;;;;;;17.48;100.00;98765.19;1755782;81;21258;-70